createdAt,value
2019-05-29T00:01:58.906Z,6.1
2019-05-29T00:04:31.220Z,6
2019-05-29T00:07:03.566Z,5.8
2019-05-29T00:09:35.749Z,6.4
2019-05-29T00:12:17.009Z,6.9
2019-05-29T00:14:49.063Z,6.2
2019-05-29T00:17:21.379Z,6.9
2019-05-29T00:19:53.625Z,6.3
2019-05-29T00:22:26.369Z,6.1
2019-05-29T00:24:58.636Z,4.7
2019-05-29T00:27:31.040Z,4.9
2019-05-29T00:30:03.373Z,4.6
2019-05-29T00:32:37.075Z,4.6
2019-05-29T00:35:10.584Z,4.6
2019-05-29T00:37:44.512Z,3.7
2019-05-29T00:40:17.358Z,3.7
2019-05-29T00:42:49.866Z,2.7
2019-05-29T00:45:22.353Z,3
2019-05-29T00:47:54.758Z,2.3
2019-05-29T00:50:27.045Z,1.5
2019-05-29T00:52:59.517Z,1.9
2019-05-29T00:55:31.754Z,0.8
2019-05-29T00:58:04.096Z,0.5
2019-05-29T01:00:36.362Z,0.3
2019-05-29T01:03:09.761Z,0.1
2019-05-29T01:05:43.388Z,0.1
2019-05-29T01:08:16.676Z,0.1
2019-05-29T01:10:50.212Z,0.2
2019-05-29T01:13:22.576Z,0.2
2019-05-29T01:15:55.056Z,0.3
2019-05-29T01:18:27.629Z,0.2
2019-05-29T01:20:59.992Z,0.2
2019-05-29T01:23:32.467Z,0.2
2019-05-29T01:26:04.828Z,0.2
2019-05-29T01:28:37.396Z,0.2
2019-05-29T01:31:26.186Z,0.2
2019-05-29T01:34:00.197Z,0.2
2019-05-29T01:36:34.066Z,0.2
2019-05-29T01:39:07.955Z,0.3
2019-05-29T01:41:41.706Z,0.2
2019-05-29T01:44:15.650Z,0.3
2019-05-29T01:46:50.858Z,0.2
2019-05-29T01:49:24.867Z,0.4
2019-05-29T01:51:58.609Z,0.3
2019-05-29T01:54:32.635Z,0.2
2019-05-29T01:57:06.355Z,0.4
2019-05-29T01:59:40.212Z,0.2
2019-05-29T02:02:14.050Z,0.2
2019-05-29T02:04:47.888Z,0.2
2019-05-29T02:07:20.571Z,0.3
2019-05-29T02:09:56.009Z,0.4
2019-05-29T02:12:28.345Z,0.3
2019-05-29T02:15:00.949Z,0.4
2019-05-29T02:17:33.116Z,0.4
2019-05-29T02:20:05.888Z,0.5
2019-05-29T02:22:38.184Z,0.4
2019-05-29T02:25:10.626Z,0.5
2019-05-29T02:27:42.856Z,0.6
2019-05-29T02:30:17.815Z,0.7
2019-05-29T02:32:56.014Z,0.8
2019-05-29T02:35:29.855Z,1
2019-05-29T02:38:02.152Z,0.8
2019-05-29T02:40:34.917Z,1.1
2019-05-29T02:43:07.256Z,1.1
2019-05-29T02:45:55.106Z,1
2019-05-29T02:48:23.142Z,0.9
2019-05-29T02:51:01.612Z,1
2019-05-29T02:53:33.853Z,0.8
2019-05-29T02:56:06.669Z,0.6
2019-05-29T02:58:39.013Z,0.6
2019-05-29T03:01:11.513Z,0.8
2019-05-29T03:03:43.877Z,0.5
2019-05-29T03:06:16.382Z,0.8
2019-05-29T03:08:48.714Z,0.7
2019-05-29T03:11:24.702Z,0.7
2019-05-29T03:14:01.922Z,0.7
2019-05-29T03:16:35.168Z,1.1
2019-05-29T03:19:07.385Z,1.1
2019-05-29T03:21:39.706Z,1.2
2019-05-29T03:24:11.940Z,1.4
2019-05-29T03:26:44.383Z,1.3
2019-05-29T03:29:16.602Z,1.4
2019-05-29T03:31:34.787Z,1.3
2019-05-29T03:34:07.875Z,1.7
2019-05-29T03:36:48.529Z,2.1
2019-05-29T03:39:23.018Z,1.7
2019-05-29T03:41:57.017Z,1.9
2019-05-29T03:44:35.196Z,2
2019-05-29T03:47:09.288Z,2.3
2019-05-29T03:49:43.306Z,2
2019-05-29T03:52:17.206Z,2
2019-05-29T03:54:51.128Z,2
2019-05-29T03:57:25.414Z,2
2019-05-29T04:00:03.781Z,2
2019-05-29T04:02:38.494Z,2.3
2019-05-29T04:05:10.915Z,2.3
2019-05-29T04:07:43.169Z,2
2019-05-29T04:10:15.654Z,2.1
2019-05-29T04:12:47.932Z,2.1
2019-05-29T04:15:20.465Z,1.7
2019-05-29T04:17:52.798Z,1.8
2019-05-29T04:20:25.092Z,1.9
2019-05-29T04:22:57.431Z,1.5
2019-05-29T04:25:35.815Z,1.7
2019-05-29T04:28:11.196Z,1.6
2019-05-29T04:30:43.548Z,2.1
2019-05-29T04:33:16.150Z,1.4
2019-05-29T04:35:48.699Z,1.4
2019-05-29T04:38:20.965Z,1.5
2019-05-29T04:40:53.539Z,1.9
2019-05-29T04:43:26.687Z,1.5
2019-05-29T04:46:04.874Z,1.2
2019-05-29T04:48:40.294Z,1.4
2019-05-29T04:51:13.034Z,1.2
2019-05-29T04:53:45.357Z,1.3
2019-05-29T04:56:22.919Z,1.4
2019-05-29T04:58:55.237Z,1
2019-05-29T05:01:29.148Z,1.1
2019-05-29T05:04:02.718Z,1.2
2019-05-29T05:06:35.537Z,1.2
2019-05-29T05:09:07.921Z,1.3
2019-05-29T05:11:40.545Z,1.5
2019-05-29T05:14:13.045Z,1.3
2019-05-29T05:16:45.572Z,1.1
2019-05-29T05:19:18.170Z,0.8
2019-05-29T05:21:50.632Z,1.4
2019-05-29T05:24:22.947Z,1.3
2019-05-29T05:26:55.780Z,1
2019-05-29T05:29:28.791Z,1.2
2019-05-29T05:31:25.988Z,1.2
2019-05-29T05:33:59.882Z,1.2
2019-05-29T05:36:34.851Z,1.2
2019-05-29T05:39:08.599Z,1.3
2019-05-29T05:41:42.294Z,1.5
2019-05-29T05:44:16.295Z,1.5
2019-05-29T05:46:50.168Z,1.6
2019-05-29T05:49:24.198Z,1.6
2019-05-29T05:51:57.915Z,1.6
2019-05-29T05:54:33.288Z,1.5
2019-05-29T05:57:07.581Z,1.8
2019-05-29T05:59:40.143Z,1.5
2019-05-29T06:02:13.761Z,1.3
2019-05-29T06:04:46.167Z,1.2
2019-05-29T06:07:18.524Z,1.1
2019-05-29T06:09:51.122Z,1.2
2019-05-29T06:12:23.476Z,1.2
2019-05-29T06:14:55.881Z,1
2019-05-29T06:17:28.285Z,0.7
2019-05-29T06:20:00.771Z,0.6
2019-05-29T06:22:33.156Z,0.7
2019-05-29T06:25:07.174Z,0.9
2019-05-29T06:27:39.562Z,1
2019-05-29T06:30:13.591Z,1.2
2019-05-29T06:32:45.852Z,1
2019-05-29T06:35:18.600Z,1.2
2019-05-29T06:37:51.131Z,1.2
2019-05-29T06:40:23.560Z,0.9
2019-05-29T06:42:55.832Z,1
2019-05-29T06:45:28.265Z,1.5
2019-05-29T06:48:00.721Z,1.1
2019-05-29T06:50:33.245Z,1.3
2019-05-29T06:53:07.111Z,1.2
2019-05-29T06:55:40.104Z,1.4
2019-05-29T06:58:14.212Z,1.5
2019-05-29T07:00:47.035Z,1.5
2019-05-29T07:03:19.284Z,1.4
2019-05-29T07:05:53.259Z,1.5
2019-05-29T07:08:43.120Z,1.5
2019-05-29T07:11:06.707Z,1.1
2019-05-29T07:13:44.977Z,0.9
2019-05-29T07:16:20.528Z,1.1
2019-05-29T07:19:29.562Z,1.3
2019-05-29T07:21:34.008Z,1.2
2019-05-29T07:24:06.409Z,1.3
2019-05-29T07:26:39.153Z,1.2
2019-05-29T07:29:12.904Z,1.1
2019-05-29T07:31:25.720Z,1.2
2019-05-29T07:33:59.918Z,1.2
2019-05-29T07:36:33.758Z,1
2019-05-29T07:39:07.920Z,1
2019-05-29T07:41:40.246Z,1.3
2019-05-29T07:44:14.112Z,1
2019-05-29T07:46:48.790Z,1.5
2019-05-29T07:49:39.538Z,1.2
2019-05-29T07:52:02.369Z,1.4
2019-05-29T07:54:35.037Z,1.2
2019-05-29T07:57:07.590Z,1.2
2019-05-29T07:59:40.697Z,1
2019-05-29T08:02:13.368Z,0.6
2019-05-29T08:04:47.360Z,0.8
2019-05-29T08:07:21.681Z,0.8
2019-05-29T08:09:54.080Z,1.2
2019-05-29T08:12:26.404Z,1.6
2019-05-29T08:14:58.941Z,1.5
2019-05-29T08:17:31.527Z,1.3
2019-05-29T08:20:08.176Z,1
2019-05-29T08:22:40.466Z,1
2019-05-29T08:25:14.575Z,1.9
2019-05-29T08:27:47.115Z,1.9
2019-05-29T08:30:21.059Z,2.1
2019-05-29T08:32:53.394Z,2
2019-05-29T08:35:25.917Z,2.6
2019-05-29T08:37:58.187Z,2
2019-05-29T08:40:30.664Z,2.2
2019-05-29T08:43:02.942Z,1.7
2019-05-29T08:45:35.474Z,2.1
2019-05-29T08:48:08.611Z,2
2019-05-29T08:50:41.772Z,1.8
2019-05-29T08:53:14.327Z,1.8
2019-05-29T08:55:49.227Z,1.7
2019-05-29T08:58:24.686Z,1.2
2019-05-29T09:00:57.367Z,1.5
2019-05-29T09:03:30.276Z,1
2019-05-29T09:06:12.897Z,1
2019-05-29T09:08:46.599Z,0.5
2019-05-29T09:11:24.846Z,0.5
2019-05-29T09:13:57.240Z,0.6
2019-05-29T09:16:29.918Z,0.6
2019-05-29T09:19:02.455Z,0.7
2019-05-29T09:21:35.095Z,0.6
2019-05-29T09:24:07.455Z,0.6
2019-05-29T09:26:39.864Z,0.5
2019-05-29T09:29:20.548Z,0.7
2019-05-29T09:31:25.737Z,0.6
2019-05-29T09:34:00.066Z,0.7
2019-05-29T09:36:33.936Z,0.5
2019-05-29T09:39:07.974Z,0.5
2019-05-29T09:41:41.862Z,0.4
2019-05-29T09:44:39.055Z,0.4
2019-05-29T09:46:58.164Z,0.5
2019-05-29T09:49:32.571Z,0.4
2019-05-29T09:52:06.577Z,0.5
2019-05-29T09:54:40.596Z,0.4
2019-05-29T09:57:15.700Z,0.6
2019-05-29T09:59:49.729Z,0.6
2019-05-29T10:02:23.567Z,0.4
2019-05-29T10:05:00.966Z,0.5
2019-05-29T10:07:37.627Z,0.4
2019-05-29T10:10:11.615Z,0.5
2019-05-29T10:12:45.627Z,0.5
2019-05-29T10:15:19.484Z,0.8
2019-05-29T10:17:56.665Z,1
2019-05-29T10:20:32.647Z,1.1
2019-05-29T10:23:06.492Z,1.4
2019-05-29T10:25:40.673Z,1.2
2019-05-29T10:28:14.473Z,1.5
2019-05-29T10:30:50.339Z,1.2
2019-05-29T10:33:24.991Z,0.7
2019-05-29T10:35:57.913Z,0.5
2019-05-29T10:38:30.432Z,0.4
2019-05-29T10:41:07.593Z,0.6
2019-05-29T10:43:40.136Z,0.6
2019-05-29T10:46:12.935Z,0.7
2019-05-29T10:48:51.976Z,0.7
2019-05-29T10:51:26.693Z,0.9
2019-05-29T10:53:59.628Z,0.8
2019-05-29T10:56:32.347Z,0.6
2019-05-29T10:59:05.035Z,0.5
2019-05-29T11:01:37.766Z,0.7
2019-05-29T11:04:10.351Z,0.9
2019-05-29T11:06:43.124Z,0.9
2019-05-29T11:09:15.793Z,0.8
2019-05-29T11:11:52.614Z,0.6
2019-05-29T11:14:30.153Z,1
2019-05-29T11:17:02.622Z,0.9
2019-05-29T11:19:34.950Z,1.1
2019-05-29T11:22:26.639Z,0.9
2019-05-29T11:24:48.236Z,0.8
2019-05-29T11:27:26.352Z,0.8
2019-05-29T11:29:59.385Z,0.8
2019-05-29T11:31:26.109Z,0.7
2019-05-29T11:33:59.995Z,0.7
2019-05-29T11:36:33.792Z,0.8
2019-05-29T11:39:07.607Z,0.8
2019-05-29T11:41:41.402Z,0.7
2019-05-29T11:44:15.529Z,1
2019-05-29T11:46:50.351Z,1
2019-05-29T11:49:26.005Z,1
2019-05-29T11:52:24.909Z,1
2019-05-29T11:54:42.387Z,1.1
2019-05-29T11:57:16.257Z,1
2019-05-29T11:59:52.019Z,1
2019-05-29T12:02:25.783Z,1.1
2019-05-29T12:05:03.822Z,0.9
2019-05-29T12:07:36.336Z,1.2
2019-05-29T12:10:09.191Z,0.8
2019-05-29T12:12:42.827Z,0.8
2019-05-29T12:15:19.028Z,1.2
2019-05-29T12:18:19.769Z,0.9
2019-05-29T12:20:31.315Z,0.9
2019-05-29T12:23:26.631Z,0.9
2019-05-29T12:25:43.935Z,0.9
2019-05-29T12:28:15.628Z,0.9
2019-05-29T12:30:47.367Z,1
2019-05-29T12:33:19.122Z,0.8
2019-05-29T12:35:51.017Z,0.9
2019-05-29T12:38:24.114Z,0.6
2019-05-29T12:40:57.935Z,0.8
2019-05-29T12:43:32.992Z,0.7
2019-05-29T12:46:05.249Z,0.8
2019-05-29T12:48:40.097Z,0.8
2019-05-29T12:51:11.970Z,0.6
2019-05-29T12:53:43.607Z,0.5
2019-05-29T12:56:15.534Z,0.6
2019-05-29T12:58:47.363Z,0.5
2019-05-29T13:01:19.161Z,0.6
2019-05-29T13:03:50.847Z,0.5
2019-05-29T13:06:22.639Z,0.5
2019-05-29T13:08:56.003Z,0.7
2019-05-29T13:11:28.083Z,0.7
2019-05-29T13:14:00.783Z,0.5
2019-05-29T13:16:32.534Z,0.8
2019-05-29T13:19:05.771Z,0.8
2019-05-29T13:21:37.593Z,1
2019-05-29T13:24:11.855Z,0.8
2019-05-29T13:26:43.737Z,1
2019-05-29T13:29:15.432Z,0.8
2019-05-29T13:31:26.502Z,1.2
2019-05-29T13:34:00.349Z,1
2019-05-29T13:36:35.533Z,1.1
2019-05-29T13:39:09.395Z,0.8
2019-05-29T13:41:43.492Z,1.1
2019-05-29T13:44:17.655Z,1
2019-05-29T13:46:51.678Z,1
2019-05-29T13:49:25.663Z,1.1
2019-05-29T13:51:59.771Z,1.2
2019-05-29T13:54:42.144Z,1.2
2019-05-29T13:57:16.464Z,1
2019-05-29T13:59:50.444Z,1.2
2019-05-29T14:02:24.271Z,1
2019-05-29T14:04:58.567Z,1.2
2019-05-29T14:07:34.055Z,1.6
2019-05-29T14:10:09.809Z,1.6
2019-05-29T14:12:43.714Z,1.7
2019-05-29T14:15:17.998Z,1.4
2019-05-29T14:17:50.439Z,1.4
2019-05-29T14:20:23.200Z,1.7
2019-05-29T14:22:55.813Z,1.7
2019-05-29T14:25:28.220Z,1.6
2019-05-29T14:28:01.012Z,1.3
2019-05-29T14:30:35.146Z,1.3
2019-05-29T14:33:12.964Z,1.4
2019-05-29T14:35:47.810Z,1.5
2019-05-29T14:38:20.350Z,1.8
2019-05-29T14:40:52.947Z,1.6
2019-05-29T14:43:25.673Z,1.6
2019-05-29T14:45:58.304Z,1.5
2019-05-29T14:48:30.849Z,2
2019-05-29T14:51:06.456Z,1.6
2019-05-29T14:53:40.355Z,1.9
2019-05-29T14:56:12.956Z,1.6
2019-05-29T14:58:45.398Z,1.4
2019-05-29T15:01:18.107Z,1.6
2019-05-29T15:03:50.423Z,1.7
2019-05-29T15:06:23.071Z,1.8
2019-05-29T15:08:55.623Z,2.1
2019-05-29T15:11:28.215Z,2
2019-05-29T15:14:01.042Z,1.7
2019-05-29T15:16:33.402Z,1.5
2019-05-29T15:19:07.079Z,1.6
2019-05-29T15:21:40.926Z,1.8
2019-05-29T15:24:13.858Z,1.7
2019-05-29T15:26:48.082Z,1.7
2019-05-29T15:29:20.872Z,1.6
2019-05-29T15:31:25.585Z,1.8
2019-05-29T15:33:59.421Z,1.8
2019-05-29T15:36:33.270Z,1.4
2019-05-29T15:39:07.057Z,2
2019-05-29T15:41:42.286Z,1.7
2019-05-29T15:44:17.478Z,1.8
2019-05-29T15:46:49.925Z,1.9
2019-05-29T15:49:22.409Z,1.8
2019-05-29T15:51:54.770Z,1.5
2019-05-29T15:54:27.577Z,1.5
2019-05-29T15:57:00.264Z,1.9
2019-05-29T15:59:32.601Z,1.5
2019-05-29T16:02:05.430Z,1.6
2019-05-29T16:04:39.346Z,1.7
2019-05-29T16:07:12.158Z,1.7
2019-05-29T16:09:46.153Z,1.7
2019-05-29T16:12:19.259Z,1.5
2019-05-29T16:14:51.865Z,1.5
2019-05-29T16:17:24.631Z,1.4
2019-05-29T16:19:57.228Z,2
2019-05-29T16:22:29.432Z,1.5
2019-05-29T16:25:02.248Z,1.4
2019-05-29T16:27:34.586Z,1.5
2019-05-29T16:30:07.164Z,1.5
2019-05-29T16:32:39.532Z,1.4
2019-05-29T16:35:13.320Z,1.4
2019-05-29T16:37:47.041Z,0.8
2019-05-29T16:40:20.212Z,0.9
2019-05-29T16:42:54.011Z,1.3
2019-05-29T16:45:26.600Z,1.1
2019-05-29T16:47:59.717Z,1.1
2019-05-29T16:50:32.484Z,1.1
2019-05-29T16:53:04.848Z,1
2019-05-29T16:55:50.983Z,1
2019-05-29T16:58:21.020Z,1.8
2019-05-29T17:00:53.887Z,1.1
2019-05-29T17:03:26.739Z,1.2
2019-05-29T17:05:59.345Z,0.9
2019-05-29T17:08:31.783Z,1
2019-05-29T17:11:05.353Z,1.2
2019-05-29T17:13:37.728Z,1
2019-05-29T17:16:10.810Z,1.2
2019-05-29T17:18:43.156Z,1
2019-05-29T17:21:16.715Z,0.9
2019-05-29T17:23:49.121Z,1.2
2019-05-29T17:26:22.892Z,1.1
2019-05-29T17:28:55.366Z,1
2019-05-29T17:31:26.299Z,1.2
2019-05-29T17:34:00.741Z,1.4
2019-05-29T17:36:35.168Z,1
2019-05-29T17:39:09.079Z,1.2
2019-05-29T17:41:43.122Z,1.1
2019-05-29T17:44:17.638Z,1.1
2019-05-29T17:46:53.006Z,1.2
2019-05-29T17:49:34.846Z,1
2019-05-29T17:52:09.275Z,0.9
2019-05-29T17:54:43.098Z,1.2
2019-05-29T17:57:18.435Z,1.1
2019-05-29T17:59:53.630Z,1.1
2019-05-29T18:02:27.732Z,1
2019-05-29T18:05:01.587Z,1.1
2019-05-29T18:07:35.607Z,1
2019-05-29T18:10:09.490Z,1.1
2019-05-29T18:12:44.528Z,0.9
2019-05-29T18:15:19.831Z,1
2019-05-29T18:17:55.365Z,1
2019-05-29T18:20:29.769Z,0.9
2019-05-29T18:23:03.798Z,1
2019-05-29T18:25:37.642Z,1.1
2019-05-29T18:28:11.597Z,1.2
2019-05-29T18:30:45.439Z,1.5
2019-05-29T18:33:20.701Z,1.4
2019-05-29T18:35:55.087Z,1.5
2019-05-29T18:38:29.226Z,1.5
2019-05-29T18:41:03.614Z,1.5
2019-05-29T18:43:38.161Z,1.7
2019-05-29T18:46:11.938Z,1.7
2019-05-29T18:48:45.985Z,1.9
2019-05-29T18:51:20.676Z,2.3
2019-05-29T18:53:56.107Z,2.1
2019-05-29T18:56:31.919Z,2.2
2019-05-29T18:59:04.875Z,2
2019-05-29T19:01:37.312Z,1.9
2019-05-29T19:04:09.976Z,2.7
2019-05-29T19:06:42.789Z,2.7
2019-05-29T19:09:16.134Z,1.8
2019-05-29T19:11:48.556Z,4
2019-05-29T19:14:21.981Z,1.9
2019-05-29T19:16:55.715Z,1.3
2019-05-29T19:19:28.660Z,1.4
2019-05-29T19:22:03.409Z,1.6
2019-05-29T19:24:36.416Z,1.7
2019-05-29T19:27:09.344Z,1.9
2019-05-29T19:29:42.402Z,2.1
2019-05-29T19:31:27.240Z,2.2
2019-05-29T19:34:02.540Z,2.1
2019-05-29T19:36:36.536Z,2
2019-05-29T19:39:11.141Z,1.9
2019-05-29T19:41:45.107Z,1.9
2019-05-29T19:44:19.148Z,2.5
2019-05-29T19:46:54.472Z,5.3
2019-05-29T19:49:29.089Z,3.4
2019-05-29T19:52:04.276Z,5.3
2019-05-29T19:57:11.301Z,2.2
2019-05-29T19:59:45.133Z,1.5
2019-05-29T20:02:19.318Z,1.8
2019-05-29T20:04:51.826Z,1.9
2019-05-29T20:07:24.344Z,2
2019-05-29T20:09:56.972Z,1.5
2019-05-29T20:12:29.867Z,1.8
2019-05-29T20:15:03.652Z,2.4
2019-05-29T20:17:36.516Z,3
2019-05-29T20:20:10.375Z,5.6
2019-05-29T20:22:43.467Z,6.3
2019-05-29T20:25:15.845Z,5.8
2019-05-29T20:27:48.632Z,4.8
2019-05-29T20:30:21.228Z,2.5
2019-05-29T20:32:53.906Z,2.1
2019-05-29T20:35:26.257Z,2.4
2019-05-29T20:37:58.826Z,2.1
2019-05-29T20:40:31.379Z,2.1
2019-05-29T20:43:04.952Z,2.3
2019-05-29T20:45:37.959Z,2.4
2019-05-29T20:48:12.163Z,1.9
2019-05-29T20:50:45.042Z,2.2
2019-05-29T20:53:18.283Z,2.5
2019-05-29T20:55:50.704Z,2.8
2019-05-29T20:58:25.325Z,2.9
2019-05-29T21:00:57.953Z,3
2019-05-29T21:03:30.684Z,3.2
2019-05-29T21:06:06.017Z,3.2
2019-05-29T21:08:39.208Z,3
2019-05-29T21:11:12.954Z,3
2019-05-29T21:13:45.763Z,3.2
2019-05-29T21:16:18.014Z,3.4
2019-05-29T21:18:51.204Z,3
2019-05-29T21:21:23.657Z,3.4
2019-05-29T21:23:56.506Z,4
2019-05-29T21:26:29.307Z,3.6
2019-05-29T21:29:02.569Z,3.5
2019-05-29T21:31:25.803Z,3.8
2019-05-29T21:33:59.736Z,3.5
2019-05-29T21:36:44.432Z,3.3
2019-05-29T21:39:25.587Z,3.2
2019-05-29T21:41:59.924Z,2.8
2019-05-29T21:44:34.062Z,2.9
2019-05-29T21:47:07.860Z,3.3
2019-05-29T21:49:41.215Z,2.5
2019-05-29T21:52:16.507Z,3.5
2019-05-29T21:54:49.067Z,3.1
2019-05-29T21:57:21.712Z,2.8
2019-05-29T21:59:54.858Z,2.5
2019-05-29T22:02:27.374Z,3
2019-05-29T22:04:59.854Z,2.7
2019-05-29T22:07:32.342Z,3.2
2019-05-29T22:10:04.909Z,2.8
2019-05-29T22:12:37.892Z,2.9
2019-05-29T22:15:10.511Z,3.1
2019-05-29T22:17:43.165Z,2.6
2019-05-29T22:20:15.850Z,2.7
2019-05-29T22:22:48.240Z,2.8
2019-05-29T22:25:20.554Z,2.9
2019-05-29T22:27:53.826Z,2.5
2019-05-29T22:30:28.149Z,3
2019-05-29T22:33:02.089Z,3
2019-05-29T22:35:34.400Z,3.3
2019-05-29T22:38:06.674Z,2.9
2019-05-29T22:40:39.008Z,3.2
2019-05-29T22:43:11.868Z,2.6
2019-05-29T22:45:44.450Z,2.7
2019-05-29T22:48:18.279Z,3.3
2019-05-29T22:50:51.830Z,3.3
2019-05-29T22:53:25.840Z,3.4
2019-05-29T22:55:58.280Z,3.7
2019-05-29T22:58:32.120Z,3
2019-05-29T23:01:04.879Z,3.3
2019-05-29T23:03:37.302Z,3.4
2019-05-29T23:06:09.650Z,4.2
2019-05-29T23:08:42.219Z,3.5
2019-05-29T23:11:14.714Z,3.6
2019-05-29T23:13:47.137Z,4.2
2019-05-29T23:16:19.663Z,4.1
2019-05-29T23:18:52.643Z,4.9
2019-05-29T23:21:26.133Z,4.8
2019-05-29T23:23:59.698Z,4.5
2019-05-29T23:26:32.559Z,5.3
2019-05-29T23:29:04.996Z,5.8
2019-05-29T23:31:25.349Z,6.2
2019-05-29T23:33:58.649Z,6.3
2019-05-29T23:36:31.324Z,6
2019-05-29T23:39:03.688Z,5.6
2019-05-29T23:41:36.291Z,5.6
2019-05-29T23:44:08.722Z,6.4
2019-05-29T23:46:41.062Z,6.8
2019-05-29T23:49:13.311Z,6.9
2019-05-29T23:56:48.770Z,7.5
2019-05-29T23:59:21.016Z,7.8
